createdAt,value
2023-08-03T00:04:15.786Z,27.13
2023-08-03T00:09:07.556Z,27.13
2023-08-03T00:13:59.436Z,27.13
2023-08-03T00:18:51.193Z,27.11
2023-08-03T00:23:42.947Z,27.13
2023-08-03T00:28:34.633Z,27.12
2023-08-03T00:33:26.568Z,27.10
2023-08-03T00:38:18.395Z,27.12
2023-08-03T00:43:12.373Z,27.11
2023-08-03T00:48:04.215Z,27.12
2023-08-03T00:52:56.014Z,27.11
2023-08-03T00:57:47.854Z,27.12
2023-08-03T01:02:39.775Z,27.12
2023-08-03T01:07:31.611Z,27.11
2023-08-03T01:12:23.494Z,27.12
2023-08-03T01:17:15.406Z,27.11
2023-08-03T01:22:10.151Z,27.11
2023-08-03T01:27:02.775Z,27.12
2023-08-03T01:31:57.702Z,27.13
2023-08-03T01:36:49.503Z,27.12
2023-08-03T01:41:42.935Z,27.12
2023-08-03T01:46:35.071Z,27.13
2023-08-03T01:51:26.877Z,27.12
2023-08-03T01:56:19.783Z,27.13
2023-08-03T02:01:11.596Z,27.11
2023-08-03T02:06:03.510Z,27.13
2023-08-03T02:10:56.280Z,27.12
2023-08-03T02:15:48.067Z,27.02
2023-08-03T02:20:39.793Z,27.12
2023-08-03T02:25:31.607Z,27.12
2023-08-03T02:30:23.333Z,27.12
2023-08-03T02:35:16.099Z,27.12
2023-08-03T02:40:10.337Z,27.10
2023-08-03T02:45:02.284Z,27.12
2023-08-03T02:49:55.477Z,27.11
2023-08-03T02:54:47.491Z,27.12
2023-08-03T02:59:41.328Z,27.09
2023-08-03T03:04:34.836Z,27.11
2023-08-03T03:09:27.743Z,27.10
2023-08-03T03:14:20.823Z,27.06
2023-08-03T03:19:12.643Z,27.07
2023-08-03T03:24:06.516Z,27.11
2023-08-03T03:28:58.405Z,27.12
2023-08-03T03:33:55.888Z,27.10
2023-08-03T03:38:48.271Z,27.10
2023-08-03T03:43:40.282Z,27.10
2023-08-03T03:48:32.174Z,27.09
2023-08-03T03:53:28.539Z,27.08
2023-08-03T03:58:20.668Z,27.09
2023-08-03T04:03:12.762Z,27.09
2023-08-03T04:08:05.774Z,27.08
2023-08-03T04:12:58.412Z,27.07
2023-08-03T04:17:51.237Z,27.00
2023-08-03T04:22:51.216Z,26.99
2023-08-03T04:27:44.909Z,27.00
2023-08-03T04:32:40.574Z,27.01
2023-08-03T04:37:33.289Z,27.03
2023-08-03T04:42:26.497Z,27.04
2023-08-03T04:47:18.375Z,27.04
2023-08-03T04:52:10.679Z,27.06
2023-08-03T04:57:02.491Z,27.01
2023-08-03T05:01:59.016Z,27.04
2023-08-03T05:06:52.362Z,27.04
2023-08-03T05:11:45.892Z,27.04
2023-08-03T05:16:39.099Z,27.06
2023-08-03T05:21:30.986Z,27.06
2023-08-03T05:26:22.655Z,27.07
2023-08-03T05:31:14.541Z,27.06
2023-08-03T05:36:06.363Z,27.00
2023-08-03T05:40:58.087Z,27.06
2023-08-03T05:45:50.575Z,27.03
2023-08-03T05:50:52.977Z,27.07
2023-08-03T05:55:49.335Z,27.04
2023-08-03T06:00:50.869Z,27.07
2023-08-03T06:05:44.350Z,27.07
2023-08-03T06:10:36.259Z,27.08
2023-08-03T06:15:28.028Z,27.07
2023-08-03T06:20:23.437Z,27.08
2023-08-03T06:25:16.902Z,27.08
2023-08-03T06:30:13.987Z,27.08
2023-08-03T06:35:06.165Z,27.11
2023-08-03T06:39:58.125Z,27.10
2023-08-03T06:44:50.794Z,27.09
2023-08-03T06:49:42.565Z,27.11
2023-08-03T06:54:34.251Z,27.10
2023-08-03T06:59:25.939Z,27.11
2023-08-03T07:04:17.817Z,27.12
2023-08-03T07:09:09.545Z,27.12
2023-08-03T07:14:01.204Z,27.13
2023-08-03T07:18:53.005Z,27.13
2023-08-03T07:23:44.793Z,27.14
2023-08-03T07:28:36.443Z,27.12
2023-08-03T07:33:28.146Z,27.13
2023-08-03T07:38:19.858Z,27.16
2023-08-03T07:43:11.664Z,27.16
2023-08-03T07:48:03.625Z,27.16
2023-08-03T07:52:55.480Z,27.16
2023-08-03T07:57:47.224Z,27.16
2023-08-03T08:02:38.969Z,27.16
2023-08-03T08:07:30.758Z,27.12
2023-08-03T08:12:22.435Z,27.16
2023-08-03T08:17:14.615Z,27.15
2023-08-03T08:22:15.766Z,27.17
2023-08-03T08:27:09.517Z,27.17
2023-08-03T08:32:01.842Z,27.17
2023-08-03T08:36:56.688Z,27.17
2023-08-03T08:41:48.463Z,27.17
2023-08-03T08:46:42.802Z,27.15
2023-08-03T09:01:27.232Z,27.13
2023-08-03T09:06:24.327Z,27.12
2023-08-03T09:11:17.065Z,27.09
2023-08-03T09:16:23.751Z,27.13
2023-08-03T09:26:12.850Z,27.15
2023-08-03T09:31:05.825Z,27.16
2023-08-03T09:36:04.183Z,27.15
2023-08-03T09:40:56.086Z,27.12
2023-08-03T09:45:48.044Z,26.61
2023-08-03T09:50:47.640Z,26.23
2023-08-03T09:55:47.224Z,26.17
2023-08-03T10:00:40.232Z,26.11
2023-08-03T10:05:35.106Z,26.14
2023-08-03T10:10:28.314Z,26.33
2023-08-03T10:15:20.380Z,26.34
2023-08-03T10:20:13.156Z,26.38
2023-08-03T10:25:20.667Z,26.41
2023-08-03T10:30:12.477Z,26.43
2023-08-03T10:35:41.513Z,26.40
2023-08-03T10:40:33.312Z,26.35
2023-08-03T10:45:27.698Z,26.35
2023-08-03T10:50:19.532Z,26.37
2023-08-03T10:55:22.935Z,26.37
2023-08-03T11:00:14.974Z,26.37
2023-08-03T11:05:09.484Z,26.33
2023-08-03T11:10:03.442Z,26.35
2023-08-03T11:14:57.177Z,26.34
2023-08-03T11:19:49.076Z,26.32
2023-08-03T11:24:41.267Z,26.33
2023-08-03T11:29:36.989Z,26.35
2023-08-03T11:34:28.827Z,26.31
2023-08-03T11:39:21.259Z,26.41
2023-08-03T11:44:13.015Z,26.33
2023-08-03T11:49:05.124Z,26.29
2023-08-03T11:53:56.859Z,26.29
2023-08-03T11:58:48.590Z,26.27
2023-08-03T12:03:40.657Z,26.25
2023-08-03T12:08:45.122Z,26.28
2023-08-03T12:13:39.149Z,26.24
2023-08-03T12:18:31.400Z,26.23
2023-08-03T12:23:23.334Z,26.25
2023-08-03T12:28:15.502Z,26.24
2023-08-03T12:33:08.692Z,26.20
2023-08-03T12:38:00.528Z,26.22
2023-08-03T12:42:52.328Z,26.20
2023-08-03T12:47:51.884Z,26.10
2023-08-03T12:52:45.036Z,26.20
2023-08-03T12:57:36.748Z,26.19
2023-08-03T13:02:31.657Z,26.21
2023-08-03T13:07:23.549Z,26.17
2023-08-03T13:12:16.009Z,26.18
2023-08-03T13:17:08.243Z,26.17
2023-08-03T13:22:00.257Z,26.17
2023-08-03T13:26:51.960Z,26.10
2023-08-03T13:31:44.673Z,25.98
2023-08-03T13:36:36.545Z,25.90
2023-08-03T13:41:28.331Z,25.94
2023-08-03T13:46:20.375Z,25.89
2023-08-03T13:51:12.250Z,25.82
2023-08-03T13:56:04.068Z,25.82
2023-08-03T14:00:55.989Z,25.79
2023-08-03T14:25:43.736Z,25.77
2023-08-03T14:30:35.641Z,25.73
2023-08-03T14:40:22.137Z,25.73
2023-08-03T14:45:14.871Z,25.60
2023-08-03T14:55:02.249Z,25.72
2023-08-03T14:59:54.303Z,25.63
2023-08-03T15:04:47.345Z,25.65
2023-08-03T15:09:39.499Z,25.66
2023-08-03T15:14:31.502Z,25.62
2023-08-03T15:19:24.176Z,25.62
2023-08-03T15:24:17.801Z,25.59
2023-08-03T15:29:23.126Z,25.59
2023-08-03T15:34:18.219Z,25.73
2023-08-03T15:39:11.169Z,25.98
2023-08-03T15:44:06.226Z,26.01
2023-08-03T15:53:59.171Z,25.87
2023-08-03T15:58:54.297Z,26.05
2023-08-03T16:03:46.197Z,26.09
2023-08-03T16:08:38.026Z,26.07
2023-08-03T16:13:30.799Z,26.04
2023-08-03T16:18:22.567Z,26.02
2023-08-03T16:23:14.364Z,25.99
2023-08-03T16:28:06.170Z,25.97
2023-08-03T16:32:58.025Z,25.94
2023-08-03T16:37:49.861Z,25.95
2023-08-03T16:42:41.677Z,25.94
2023-08-03T16:47:33.476Z,25.91
2023-08-03T16:52:25.468Z,25.87
2023-08-03T16:57:20.130Z,25.88
2023-08-03T17:02:11.916Z,25.87
2023-08-03T17:07:03.911Z,25.86
2023-08-03T17:11:55.794Z,25.86
2023-08-03T17:16:47.779Z,25.86
2023-08-03T17:21:39.802Z,25.85
2023-08-03T17:26:31.642Z,26.02
2023-08-03T17:31:23.362Z,26.01
2023-08-03T17:36:15.228Z,26.01
2023-08-03T17:41:07.088Z,25.99
2023-08-03T17:45:59.885Z,25.95
2023-08-03T17:50:52.129Z,25.99
2023-08-03T17:55:43.863Z,25.96
2023-08-03T18:00:35.739Z,25.99
2023-08-03T18:05:28.212Z,25.99
2023-08-03T18:10:19.998Z,26.00
2023-08-03T18:15:13.602Z,25.98
2023-08-03T18:20:06.277Z,26.05
2023-08-03T18:24:58.115Z,26.14
2023-08-03T18:29:50.914Z,26.17
2023-08-03T18:34:42.795Z,26.16
2023-08-03T18:39:34.618Z,26.15
2023-08-03T18:44:26.400Z,26.16
2023-08-03T18:49:18.249Z,26.15
2023-08-03T18:54:10.044Z,26.16
2023-08-03T18:59:01.801Z,26.16
2023-08-03T19:03:55.212Z,26.14
2023-08-03T19:08:47.163Z,26.17
2023-08-03T19:13:39.554Z,26.16
2023-08-03T19:18:32.064Z,26.16
2023-08-03T19:23:26.231Z,26.18
2023-08-03T19:28:18.108Z,26.23
2023-08-03T19:33:11.745Z,26.25
2023-08-03T19:38:04.112Z,26.27
2023-08-03T19:42:56.038Z,26.35
2023-08-03T19:47:56.403Z,26.35
2023-08-03T20:07:38.180Z,26.38
2023-08-03T20:17:26.668Z,26.29
2023-08-03T20:22:22.113Z,26.28
2023-08-03T20:27:13.913Z,26.40
2023-08-03T20:32:05.979Z,26.41
2023-08-03T20:36:58.031Z,26.41
2023-08-03T20:51:39.257Z,26.41
2023-08-03T20:56:30.985Z,26.42
2023-08-03T21:01:22.941Z,26.44
2023-08-03T21:06:14.793Z,26.44
2023-08-03T21:11:15.561Z,26.45
2023-08-03T21:16:12.146Z,26.45
2023-08-03T21:21:04.331Z,26.44
2023-08-03T21:25:56.541Z,26.47
2023-08-03T21:30:48.373Z,26.46
2023-08-03T21:35:40.125Z,26.47
2023-08-03T21:40:32.017Z,26.44
2023-08-03T21:45:23.879Z,26.48
2023-08-03T21:50:16.564Z,26.47
2023-08-03T21:55:09.909Z,26.48
2023-08-03T22:00:01.826Z,26.49
2023-08-03T22:04:53.635Z,26.48
2023-08-03T22:09:45.491Z,26.48
2023-08-03T22:14:37.329Z,26.50
2023-08-03T22:19:29.128Z,26.50
2023-08-03T22:24:21.542Z,26.50
2023-08-03T22:29:13.921Z,26.51
2023-08-03T22:34:05.670Z,26.50
2023-08-03T22:38:57.447Z,26.49
2023-08-03T22:43:49.299Z,26.50
2023-08-03T22:48:41.050Z,26.50
2023-08-03T22:53:32.753Z,26.48
2023-08-03T22:58:26.866Z,26.51
2023-08-03T23:03:18.786Z,26.49
2023-08-03T23:08:10.658Z,26.51
2023-08-03T23:13:02.359Z,26.52
2023-08-03T23:17:57.190Z,26.51
2023-08-03T23:22:48.965Z,26.50
2023-08-03T23:27:40.716Z,26.52
2023-08-03T23:32:32.599Z,26.51
2023-08-03T23:37:24.469Z,26.53
2023-08-03T23:42:16.230Z,26.51
2023-08-03T23:47:08.024Z,26.51
2023-08-03T23:51:59.731Z,26.52
2023-08-03T23:56:51.426Z,26.51
